createdAt,value
2022-12-24T07:10:01.547Z,9.00
2022-12-24T07:13:03.610Z,8.90
2022-12-24T07:16:21.563Z,9.00
2022-12-24T07:23:40.637Z,9.10
2022-12-24T07:26:47.440Z,9.20
2022-12-24T07:31:39.696Z,9.20
2022-12-24T07:34:26.052Z,9.20
2022-12-24T07:37:33.154Z,9.20
2022-12-24T07:40:25.052Z,9.20
2022-12-24T07:47:30.795Z,9.30
2022-12-24T07:50:52.213Z,9.30
2022-12-24T07:54:04.501Z,9.20
2022-12-24T07:57:34.365Z,9.20
2022-12-24T08:39:39.067Z,9.60
2022-12-24T08:42:29.805Z,9.70
2022-12-24T08:45:21.600Z,9.80
2022-12-24T08:48:19.234Z,9.80
2022-12-24T08:51:22.768Z,9.70
2022-12-24T08:54:27.168Z,9.60
2022-12-24T08:57:38.474Z,9.50
2022-12-24T09:00:28.571Z,9.50
2022-12-24T09:03:23.510Z,9.40
2022-12-24T09:06:16.557Z,9.40
2022-12-24T09:09:08.425Z,9.30
2022-12-24T09:11:57.643Z,9.30
2022-12-24T09:14:46.917Z,9.20
2022-12-24T09:17:46.625Z,9.40
2022-12-24T09:20:35.378Z,9.50
2022-12-24T09:23:30.926Z,9.70
2022-12-24T09:26:27.266Z,9.70
2022-12-24T09:29:23.879Z,9.70
2022-12-24T09:32:14.859Z,9.50
2022-12-24T09:35:25.976Z,9.60
2022-12-24T09:42:09.028Z,10.00
2022-12-24T09:45:49.111Z,10.00
2022-12-24T09:48:48.346Z,10.00
2022-12-24T09:51:43.191Z,10.60
2022-12-24T09:54:37.174Z,12.10
2022-12-24T09:57:37.533Z,12.50
2022-12-24T10:00:34.059Z,11.70
2022-12-24T10:03:25.051Z,10.90
2022-12-24T10:06:29.345Z,10.50
2022-12-24T10:09:47.679Z,11.00
2022-12-24T10:16:59.312Z,11.60
2022-12-24T10:20:08.943Z,11.40
2022-12-24T10:38:51.633Z,10.60
2022-12-24T10:41:53.325Z,10.60
2022-12-24T10:46:08.882Z,10.60
2022-12-24T10:50:30.043Z,10.40
2022-12-24T11:12:13.789Z,10.50
2022-12-24T11:42:04.324Z,11.20
2022-12-24T11:44:54.178Z,11.50
2022-12-24T11:47:45.968Z,11.60
2022-12-24T12:06:00.834Z,12.10
2022-12-24T12:09:28.051Z,12.10
2022-12-24T12:12:56.540Z,11.90
2022-12-24T12:16:04.888Z,11.80
2022-12-24T12:19:45.850Z,12.00
2022-12-24T12:26:34.711Z,12.20
2022-12-24T12:29:27.774Z,14.10
2022-12-24T12:32:43.170Z,15.40
2022-12-24T12:39:17.086Z,14.20
2022-12-24T12:42:35.932Z,13.10
2022-12-24T12:45:58.402Z,12.20
2022-12-24T12:49:07.846Z,11.90
2022-12-24T12:52:23.223Z,12.10
2022-12-24T12:55:44.837Z,12.10
2022-12-24T12:59:00.993Z,11.80
2022-12-24T13:02:13.876Z,11.70
2022-12-24T13:05:58.436Z,12.00
2022-12-24T13:09:39.286Z,13.00
2022-12-24T13:12:41.045Z,11.90
2022-12-24T13:15:49.944Z,13.00
2022-12-24T13:19:09.207Z,13.70
2022-12-24T13:21:58.011Z,13.40
2022-12-24T13:24:55.170Z,13.10
2022-12-24T13:27:43.444Z,13.50
2022-12-24T13:30:41.248Z,14.00
2022-12-24T13:33:40.653Z,14.30
2022-12-24T13:37:06.591Z,13.10
2022-12-24T13:40:07.083Z,12.30
2022-12-24T13:43:05.345Z,12.20
2022-12-24T13:45:56.580Z,12.00
2022-12-24T13:48:49.050Z,12.00
2022-12-24T13:51:37.449Z,11.90
2022-12-24T13:54:35.556Z,11.60
2022-12-24T13:57:49.528Z,11.70
2022-12-24T14:01:04.208Z,11.60
2022-12-24T14:03:59.663Z,11.50
2022-12-24T14:07:09.245Z,11.30
2022-12-24T14:11:05.626Z,11.20
2022-12-24T14:15:08.932Z,11.30
2022-12-24T14:18:31.846Z,11.20
2022-12-24T14:23:09.489Z,11.30
2022-12-24T14:54:11.428Z,10.60
2022-12-24T14:57:23.460Z,10.60
2022-12-24T15:00:24.942Z,10.50
2022-12-24T15:03:16.670Z,10.40
2022-12-24T15:06:07.097Z,10.50
2022-12-24T15:08:55.880Z,10.50
2022-12-24T15:11:46.658Z,10.50
2022-12-24T15:14:48.847Z,10.50
2022-12-24T15:17:44.496Z,10.50
2022-12-24T15:20:33.686Z,10.50
2022-12-24T15:23:28.508Z,10.40
2022-12-24T15:26:22.115Z,10.40
2022-12-24T15:29:40.148Z,10.30
2022-12-24T15:32:28.134Z,10.40
2022-12-24T15:36:00.521Z,10.30
2022-12-24T15:38:55.479Z,10.20
2022-12-24T15:42:06.809Z,10.20
2022-12-24T15:45:28.534Z,10.20
2022-12-24T15:48:31.335Z,10.10
2022-12-24T15:51:51.718Z,10.00
2022-12-24T16:06:13.152Z,9.70
2022-12-24T16:09:06.532Z,9.70
2022-12-24T16:12:01.063Z,9.70
2022-12-24T16:15:00.007Z,9.60
2022-12-24T16:17:53.193Z,9.60
2022-12-24T16:20:49.732Z,9.60
2022-12-24T16:23:59.966Z,9.60
2022-12-24T16:26:59.400Z,9.60
2022-12-24T16:29:48.223Z,9.50
2022-12-24T16:32:59.697Z,9.40
2022-12-24T16:42:39.865Z,9.30
2022-12-24T16:45:39.441Z,9.20
2022-12-24T16:48:34.377Z,9.20
2022-12-24T16:51:25.284Z,9.20
2022-12-24T16:54:18.594Z,9.20
2022-12-24T16:57:24.796Z,9.20
2022-12-24T17:03:28.194Z,9.20
2022-12-24T17:06:18.949Z,9.40
2022-12-24T17:09:19.391Z,9.40
2022-12-24T17:12:11.419Z,9.40
2022-12-24T17:15:20.156Z,9.40
2022-12-24T17:18:16.619Z,9.40
2022-12-24T17:21:08.155Z,9.30
2022-12-24T17:24:04.979Z,9.40
2022-12-24T17:30:44.462Z,9.40
2022-12-24T17:33:36.789Z,9.40
2022-12-24T17:36:36.047Z,9.30
2022-12-24T17:39:31.752Z,9.20
2022-12-24T17:42:21.135Z,9.10
2022-12-24T17:45:23.649Z,9.10
2022-12-24T17:48:28.895Z,9.00
2022-12-24T17:51:24.644Z,9.10
2022-12-24T17:54:42.647Z,9.10
2022-12-24T17:57:42.010Z,9.10
2022-12-24T18:00:35.286Z,9.10
2022-12-24T18:03:31.569Z,9.00
2022-12-24T18:07:02.198Z,9.10
2022-12-24T18:10:11.040Z,9.10
2022-12-24T18:13:05.998Z,9.00
2022-12-24T18:16:11.416Z,9.00
2022-12-24T18:19:12.629Z,9.00
2022-12-24T18:22:08.347Z,9.00
2022-12-24T18:25:03.310Z,8.90
2022-12-24T18:27:55.382Z,8.90
2022-12-24T18:30:48.613Z,8.90
2022-12-24T18:34:01.756Z,8.90
2022-12-24T18:36:58.937Z,9.00
2022-12-24T18:43:28.075Z,9.00
2022-12-24T18:46:33.812Z,9.00
2022-12-24T18:49:27.295Z,9.10
2022-12-24T18:52:27.977Z,9.20
2022-12-24T18:55:24.118Z,9.10
2022-12-24T18:58:17.491Z,9.00
2022-12-24T19:01:23.708Z,9.00
2022-12-24T19:04:17.574Z,9.00
2022-12-24T19:07:28.914Z,8.90
2022-12-24T19:10:31.671Z,8.90
2022-12-24T19:13:37.136Z,8.80
2022-12-24T19:21:56.508Z,8.70
2022-12-24T19:25:19.782Z,8.80
2022-12-24T19:28:41.512Z,8.80
2022-12-24T19:32:04.821Z,8.80
2022-12-24T19:39:42.440Z,9.00
2022-12-24T21:00:32.106Z,8.80
2022-12-24T21:04:11.853Z,8.70
